createdAt,value
2018-11-02T00:00:32.882Z,18.80
2018-11-02T00:03:00.458Z,20.95
2018-11-02T00:05:28.034Z,19.52
2018-11-02T00:07:55.599Z,22.85
2018-11-02T00:10:23.187Z,21.97
2018-11-02T00:12:50.735Z,22.20
2018-11-02T00:15:18.277Z,19.85
2018-11-02T00:17:45.878Z,18.27
2018-11-02T00:20:13.453Z,24.05
2018-11-02T00:22:41.015Z,22.25
2018-11-02T00:25:08.573Z,16.57
2018-11-02T00:27:36.198Z,20.40
2018-11-02T00:30:03.875Z,21.65
2018-11-02T00:32:31.425Z,21.37
2018-11-02T00:34:58.989Z,20.80
2018-11-02T00:37:26.567Z,24.47
2018-11-02T00:39:54.122Z,21.30
2018-11-02T00:42:21.705Z,21.35
2018-11-02T00:44:49.275Z,26.20
2018-11-02T00:47:16.807Z,16.93
2018-11-02T00:49:44.321Z,26.50
2018-11-02T00:52:11.865Z,22.98
2018-11-02T00:54:39.395Z,22.10
2018-11-02T00:57:06.968Z,23.52
2018-11-02T00:59:34.493Z,20.82
2018-11-02T01:02:02.045Z,22.15
2018-11-02T01:04:29.589Z,20.45
2018-11-02T01:06:57.200Z,23.32
2018-11-02T01:09:24.746Z,26.55
2018-11-02T01:11:52.314Z,24.18
2018-11-02T01:14:19.874Z,25.95
2018-11-02T01:16:47.506Z,25.00
2018-11-02T01:19:15.008Z,22.42
2018-11-02T01:21:42.563Z,25.97
2018-11-02T01:24:10.111Z,31.55
2018-11-02T01:26:37.676Z,23.85
2018-11-02T01:29:05.258Z,18.90
2018-11-02T01:31:32.770Z,19.20
2018-11-02T01:34:00.310Z,23.77
2018-11-02T01:36:28.800Z,23.12
2018-11-02T01:38:56.378Z,19.30
2018-11-02T01:41:23.985Z,19.52
2018-11-02T01:43:51.522Z,19.85
2018-11-02T01:46:19.063Z,19.25
2018-11-02T01:48:46.669Z,19.12
2018-11-02T01:51:14.240Z,23.22
2018-11-02T01:53:41.734Z,18.32
2018-11-02T01:56:09.283Z,21.55
2018-11-02T01:58:36.845Z,18.30
2018-11-02T02:01:04.413Z,16.50
2018-11-02T02:03:31.942Z,19.27
2018-11-02T02:05:59.475Z,15.18
2018-11-02T02:08:27.036Z,28.87
2018-11-02T02:10:54.571Z,19.20
2018-11-02T02:13:22.286Z,22.00
2018-11-02T02:15:49.719Z,19.45
2018-11-02T02:18:17.250Z,20.45
2018-11-02T02:20:44.815Z,19.48
2018-11-02T02:23:13.157Z,20.95
2018-11-02T02:25:40.789Z,22.00
2018-11-02T02:28:08.347Z,19.82
2018-11-02T02:30:35.944Z,18.65
2018-11-02T02:33:03.596Z,16.85
2018-11-02T02:35:31.150Z,20.20
2018-11-02T02:37:58.683Z,17.17
2018-11-02T02:40:27.079Z,16.12
2018-11-02T02:42:54.648Z,22.50
2018-11-02T02:45:22.199Z,18.07
2018-11-02T02:47:49.753Z,18.75
2018-11-02T02:50:17.342Z,17.82
2018-11-02T02:52:44.906Z,23.47
2018-11-02T02:55:12.448Z,20.95
2018-11-02T02:57:40.001Z,19.10
2018-11-02T03:00:09.505Z,17.82
2018-11-02T03:02:37.066Z,17.30
2018-11-02T03:05:04.790Z,18.87
2018-11-02T03:07:32.347Z,19.90
2018-11-02T03:09:59.869Z,18.48
2018-11-02T03:12:27.445Z,19.40
2018-11-02T03:14:55.011Z,18.62
2018-11-02T03:17:22.553Z,21.95
2018-11-02T03:19:50.127Z,19.20
2018-11-02T03:22:17.694Z,20.37
2018-11-02T03:24:45.282Z,21.15
2018-11-02T03:27:12.846Z,19.92
2018-11-02T03:29:40.410Z,18.50
2018-11-02T03:32:07.938Z,18.95
2018-11-02T03:34:35.513Z,16.07
2018-11-02T03:37:03.091Z,21.68
2018-11-02T03:39:30.625Z,17.30
2018-11-02T03:41:58.196Z,19.80
2018-11-02T03:44:25.753Z,14.65
2018-11-02T03:46:53.289Z,18.52
2018-11-02T03:49:20.815Z,19.15
2018-11-02T03:51:48.385Z,17.02
2018-11-02T03:54:16.085Z,24.98
2018-11-02T03:56:43.702Z,22.22
2018-11-02T03:59:11.743Z,21.23
2018-11-02T04:01:39.312Z,16.35
2018-11-02T04:04:06.891Z,18.70
2018-11-02T04:06:34.452Z,15.13
2018-11-02T04:09:02.041Z,18.92
2018-11-02T04:11:29.664Z,23.30
2018-11-02T04:13:57.209Z,19.25
2018-11-02T04:16:24.768Z,21.23
2018-11-02T04:18:52.313Z,29.77
2018-11-02T04:21:19.877Z,17.77
2018-11-02T04:23:47.421Z,21.48
2018-11-02T04:26:14.977Z,18.73
2018-11-02T04:28:42.558Z,25.20
2018-11-02T04:31:10.272Z,19.25
2018-11-02T04:33:37.657Z,16.25
2018-11-02T04:36:05.499Z,21.42
2018-11-02T04:38:33.048Z,20.43
2018-11-02T04:41:00.635Z,21.80
2018-11-02T04:43:28.170Z,22.95
2018-11-02T04:45:55.733Z,18.67
2018-11-02T04:48:23.291Z,20.95
2018-11-02T04:50:50.864Z,17.92
2018-11-02T04:53:18.366Z,21.35
2018-11-02T04:55:45.968Z,24.20
2018-11-02T04:58:13.547Z,16.10
2018-11-02T05:00:41.097Z,18.23
2018-11-02T05:03:08.672Z,23.47
2018-11-02T05:05:36.217Z,27.20
2018-11-02T05:08:03.780Z,21.00
2018-11-02T05:10:31.316Z,26.93
2018-11-02T05:12:58.970Z,45.70
2018-11-02T05:15:26.493Z,18.87
2018-11-02T05:17:54.051Z,14.95
2018-11-02T05:20:21.615Z,24.90
2018-11-02T05:22:49.130Z,22.50
2018-11-02T05:25:16.719Z,22.40
2018-11-02T05:27:44.301Z,25.25
2018-11-02T05:30:11.865Z,24.85
2018-11-02T05:32:39.691Z,30.50
2018-11-02T05:35:07.326Z,26.23
2018-11-02T05:37:34.908Z,20.72
2018-11-02T05:40:02.483Z,17.98
2018-11-02T05:42:30.001Z,22.52
2018-11-02T05:44:57.548Z,40.23
2018-11-02T05:47:25.218Z,32.67
2018-11-02T05:49:52.638Z,31.15
2018-11-02T05:52:20.207Z,22.62
2018-11-02T05:54:47.733Z,18.25
2018-11-02T05:57:15.278Z,28.95
2018-11-02T05:59:42.901Z,19.35
2018-11-02T06:02:10.457Z,19.50
2018-11-02T06:04:38.031Z,17.32
2018-11-02T06:07:05.657Z,17.27
2018-11-02T06:09:33.232Z,16.25
2018-11-02T06:12:00.839Z,18.90
2018-11-02T06:14:28.390Z,17.57
2018-11-02T06:16:55.975Z,14.50
2018-11-02T06:19:23.524Z,20.02
2018-11-02T06:21:51.183Z,16.02
2018-11-02T06:24:18.872Z,17.55
2018-11-02T06:26:46.334Z,12.40
2018-11-02T06:29:13.928Z,16.03
2018-11-02T06:31:41.504Z,13.13
2018-11-02T06:34:09.079Z,15.47
2018-11-02T06:36:36.725Z,16.62
2018-11-02T06:39:06.691Z,15.20
2018-11-02T06:41:34.268Z,12.30
2018-11-02T06:44:08.431Z,18.73
2018-11-02T06:46:35.974Z,16.00
2018-11-02T06:49:03.563Z,23.73
2018-11-02T06:51:31.158Z,14.73
2018-11-02T06:53:58.713Z,14.40
2018-11-02T06:56:26.307Z,20.20
2018-11-02T06:58:53.862Z,16.80
2018-11-02T07:01:21.442Z,18.23
2018-11-02T07:03:48.995Z,21.40
2018-11-02T07:06:16.616Z,20.25
2018-11-02T07:08:44.177Z,20.23
2018-11-02T07:11:12.079Z,16.25
2018-11-02T07:13:39.617Z,18.07
2018-11-02T07:16:07.147Z,19.77
2018-11-02T07:18:34.792Z,26.85
2018-11-02T07:21:02.374Z,21.10
2018-11-02T07:23:29.930Z,21.10
2018-11-02T07:25:57.517Z,28.52
2018-11-02T07:28:25.163Z,20.32
2018-11-02T07:30:52.847Z,17.02
2018-11-02T07:33:20.834Z,30.68
2018-11-02T07:35:48.372Z,25.88
2018-11-02T07:38:15.932Z,41.70
2018-11-02T07:40:43.475Z,35.05
2018-11-02T07:43:11.040Z,31.52
2018-11-02T07:45:38.649Z,28.40
2018-11-02T07:48:06.215Z,24.18
2018-11-02T07:50:33.794Z,29.70
2018-11-02T07:53:01.417Z,27.93
2018-11-02T07:55:28.925Z,25.50
2018-11-02T07:57:56.518Z,30.30
2018-11-02T08:00:24.087Z,29.85
2018-11-02T08:02:51.646Z,33.55
2018-11-02T08:05:19.214Z,28.70
2018-11-02T08:07:46.793Z,25.55
2018-11-02T08:10:14.352Z,41.73
2018-11-02T08:12:48.482Z,47.30
2018-11-02T08:15:16.102Z,52.65
2018-11-02T08:17:43.777Z,42.85
2018-11-02T08:20:12.285Z,23.42
2018-11-02T08:22:39.982Z,27.02
2018-11-02T08:25:08.559Z,28.70
2018-11-02T08:27:36.144Z,33.25
2018-11-02T08:30:03.917Z,27.70
2018-11-02T08:32:31.458Z,21.85
2018-11-02T08:34:59.024Z,26.10
2018-11-02T08:37:26.548Z,26.45
2018-11-02T08:39:54.194Z,38.45
2018-11-02T08:42:21.726Z,27.85
2018-11-02T08:44:49.357Z,27.58
2018-11-02T08:47:16.955Z,26.27
2018-11-02T08:49:44.511Z,26.60
2018-11-02T08:52:12.154Z,32.30
2018-11-02T08:54:39.686Z,29.57
2018-11-02T08:57:07.290Z,21.82
2018-11-02T08:59:35.031Z,28.90
2018-11-02T09:02:02.442Z,23.50
2018-11-02T09:04:30.017Z,23.75
2018-11-02T09:06:57.610Z,26.35
2018-11-02T09:09:25.164Z,35.15
2018-11-02T09:11:52.836Z,24.87
2018-11-02T09:14:20.342Z,24.70
2018-11-02T09:16:47.908Z,26.75
2018-11-02T09:19:16.769Z,30.50
2018-11-02T09:21:44.647Z,23.10
2018-11-02T09:24:12.374Z,24.00
2018-11-02T09:26:39.991Z,25.30
2018-11-02T09:29:07.719Z,26.23
2018-11-02T09:31:35.250Z,23.07
2018-11-02T09:34:02.801Z,22.85
2018-11-02T09:36:30.375Z,26.03
2018-11-02T09:38:57.947Z,24.50
2018-11-02T09:41:25.512Z,32.80
2018-11-02T09:43:53.136Z,33.93
2018-11-02T09:46:20.755Z,25.70
2018-11-02T09:48:48.488Z,29.53
2018-11-02T09:51:16.171Z,24.60
2018-11-02T09:53:43.705Z,36.03
2018-11-02T09:56:11.540Z,35.43
2018-11-02T09:58:39.116Z,26.80
2018-11-02T10:01:06.871Z,38.00
2018-11-02T10:03:34.445Z,26.70
2018-11-02T10:06:02.135Z,28.30
2018-11-02T10:08:29.767Z,31.60
2018-11-02T10:10:57.315Z,27.93
2018-11-02T10:13:24.887Z,29.50
2018-11-02T10:15:52.449Z,27.77
2018-11-02T10:18:20.061Z,25.23
2018-11-02T10:20:47.634Z,25.90
2018-11-02T10:23:15.197Z,27.77
2018-11-02T10:25:42.814Z,22.00
2018-11-02T10:28:10.570Z,28.67
2018-11-02T10:30:38.263Z,21.93
2018-11-02T10:33:05.839Z,25.23
2018-11-02T10:35:33.666Z,24.67
2018-11-02T10:38:01.948Z,25.17
2018-11-02T10:40:31.496Z,36.77
2018-11-02T10:43:01.818Z,31.87
2018-11-02T10:45:32.092Z,21.87
2018-11-02T10:48:00.621Z,37.07
2018-11-02T10:50:28.226Z,37.57
2018-11-02T10:52:55.853Z,42.17
2018-11-02T10:55:23.432Z,37.27
2018-11-02T10:57:51.059Z,35.73
2018-11-02T11:00:24.295Z,30.37
2018-11-02T11:02:51.948Z,35.20
2018-11-02T11:05:19.647Z,33.40
2018-11-02T11:07:47.184Z,25.70
2018-11-02T11:10:14.814Z,29.77
2018-11-02T11:12:42.697Z,42.20
2018-11-02T11:15:10.085Z,27.37
2018-11-02T11:17:37.768Z,29.03
2018-11-02T11:20:08.513Z,27.30
2018-11-02T11:22:36.109Z,27.43
2018-11-02T11:25:03.825Z,30.53
2018-11-02T11:27:31.499Z,45.77
2018-11-02T11:29:59.061Z,30.93
2018-11-02T11:32:29.544Z,32.90
2018-11-02T11:34:57.186Z,39.33
2018-11-02T11:37:24.771Z,37.60
2018-11-02T11:39:52.510Z,33.70
2018-11-02T11:42:20.077Z,29.17
2018-11-02T11:44:47.685Z,36.47
2018-11-02T11:47:15.327Z,30.40
2018-11-02T11:49:42.943Z,33.50
2018-11-02T11:52:10.645Z,32.13
2018-11-02T11:54:38.405Z,29.23
2018-11-02T11:57:06.604Z,31.13
2018-11-02T11:59:34.207Z,39.83
2018-11-02T12:02:01.865Z,33.07
2018-11-02T12:04:29.572Z,37.07
2018-11-02T12:06:57.080Z,30.13
2018-11-02T12:09:24.699Z,30.80
2018-11-02T12:11:52.321Z,33.63
2018-11-02T12:14:19.917Z,34.20
2018-11-02T12:16:47.593Z,29.50
2018-11-02T12:19:15.296Z,30.93
2018-11-02T12:21:42.894Z,31.70
2018-11-02T12:24:11.490Z,33.53
2018-11-02T12:26:39.099Z,31.87
2018-11-02T12:29:06.751Z,30.03
2018-11-02T12:31:34.345Z,33.30
2018-11-02T12:34:01.895Z,45.20
2018-11-02T12:36:30.006Z,44.57
2018-11-02T12:38:57.648Z,35.13
2018-11-02T12:41:25.236Z,35.10
2018-11-02T12:43:53.183Z,35.13
2018-11-02T12:46:20.960Z,28.80
2018-11-02T12:48:49.150Z,29.93
2018-11-02T12:51:16.496Z,36.53
2018-11-02T12:53:44.100Z,31.97
2018-11-02T12:56:11.749Z,38.90
2018-11-02T12:58:39.333Z,26.73
2018-11-02T13:01:06.930Z,27.17
2018-11-02T13:03:34.535Z,31.57
2018-11-02T13:06:02.113Z,32.47
2018-11-02T13:08:29.765Z,31.37
2018-11-02T13:10:57.316Z,32.57
2018-11-02T13:13:24.921Z,34.10
2018-11-02T13:15:52.552Z,31.60
2018-11-02T13:18:20.433Z,30.27
2018-11-02T13:20:48.028Z,32.63
2018-11-02T13:23:15.606Z,28.17
2018-11-02T13:25:43.321Z,30.30
2018-11-02T13:28:10.818Z,31.30
2018-11-02T13:30:38.477Z,35.57
2018-11-02T13:33:06.010Z,30.40
2018-11-02T13:35:33.617Z,32.33
2018-11-02T13:38:01.235Z,34.77
2018-11-02T13:40:28.802Z,38.03
2018-11-02T13:42:56.518Z,42.13
2018-11-02T13:45:24.015Z,43.33
2018-11-02T13:47:51.638Z,32.57
2018-11-02T13:50:19.259Z,48.90
2018-11-02T13:52:46.790Z,41.80
2018-11-02T13:55:14.515Z,51.30
2018-11-02T13:57:42.394Z,39.63
2018-11-02T14:00:12.162Z,40.60
2018-11-02T14:02:39.772Z,35.53
2018-11-02T14:05:08.556Z,35.43
2018-11-02T14:07:36.119Z,31.07
2018-11-02T14:10:04.013Z,37.23
2018-11-02T14:12:31.669Z,34.10
2018-11-02T14:14:59.250Z,38.43
2018-11-02T14:17:26.823Z,34.07
2018-11-02T14:19:54.393Z,44.20
2018-11-02T14:22:21.967Z,38.27
2018-11-02T14:24:49.565Z,40.50
2018-11-02T14:27:17.099Z,35.50
2018-11-02T14:29:44.650Z,34.80
2018-11-02T14:32:12.234Z,26.17
2018-11-02T14:34:39.834Z,29.80
2018-11-02T14:37:07.421Z,33.23
2018-11-02T14:39:35.281Z,32.93
2018-11-02T14:42:02.877Z,29.03
2018-11-02T14:44:30.499Z,36.23
2018-11-02T14:46:58.093Z,26.67
2018-11-02T14:49:25.672Z,33.93
2018-11-02T14:51:53.297Z,30.27
2018-11-02T14:54:20.874Z,30.73
2018-11-02T14:56:48.470Z,40.97
2018-11-02T14:59:16.049Z,30.43
2018-11-02T15:01:43.643Z,26.80
2018-11-02T15:04:11.268Z,29.87
2018-11-02T15:06:38.903Z,35.10
2018-11-02T15:09:09.009Z,29.03
2018-11-02T15:11:36.843Z,35.83
2018-11-02T15:14:04.742Z,31.50
2018-11-02T15:16:32.328Z,30.60
2018-11-02T15:18:59.897Z,31.40
2018-11-02T15:21:27.468Z,32.13
2018-11-02T15:23:55.105Z,31.27
2018-11-02T15:26:22.730Z,32.30
2018-11-02T15:28:50.278Z,31.00
2018-11-02T15:31:17.870Z,28.37
2018-11-02T15:33:45.452Z,33.67
2018-11-02T15:36:13.060Z,30.20
2018-11-02T15:38:40.624Z,33.73
2018-11-02T15:41:08.230Z,33.53
2018-11-02T15:43:35.812Z,29.50
2018-11-02T15:46:03.435Z,30.20
2018-11-02T15:48:31.026Z,34.50
2018-11-02T15:50:58.572Z,28.63
2018-11-02T15:53:26.298Z,33.40
2018-11-02T15:55:53.887Z,31.40
2018-11-02T15:58:21.442Z,29.00
2018-11-02T16:00:49.056Z,28.17
2018-11-02T16:03:16.628Z,34.63
2018-11-02T16:05:44.201Z,30.90
2018-11-02T16:08:11.858Z,25.43
2018-11-02T16:10:39.478Z,33.53
2018-11-02T16:13:07.056Z,21.27
2018-11-02T16:15:34.666Z,25.00
2018-11-02T16:18:02.245Z,26.53
2018-11-02T16:20:29.916Z,27.60
2018-11-02T16:22:57.515Z,34.80
2018-11-02T16:25:25.113Z,26.60
2018-11-02T16:27:52.763Z,29.53
2018-11-02T16:30:20.364Z,28.00
2018-11-02T16:32:48.006Z,28.27
2018-11-02T16:35:15.635Z,14.90
2018-11-02T16:37:43.250Z,21.70
2018-11-02T16:40:12.918Z,29.80
2018-11-02T16:42:40.726Z,26.53
2018-11-02T16:45:09.864Z,21.00
2018-11-02T16:47:37.663Z,22.17
2018-11-02T16:50:05.932Z,26.27
2018-11-02T16:52:33.556Z,29.60
2018-11-02T16:55:01.246Z,36.60
2018-11-02T16:57:28.876Z,30.20
2018-11-02T16:59:56.488Z,34.77
2018-11-02T17:02:24.191Z,34.17
2018-11-02T17:04:51.705Z,43.93
2018-11-02T17:07:19.318Z,35.20
2018-11-02T17:09:46.950Z,31.50
2018-11-02T17:12:14.574Z,35.33
2018-11-02T17:14:42.173Z,35.53
2018-11-02T17:17:09.762Z,33.40
2018-11-02T17:19:37.352Z,30.57
2018-11-02T17:22:05.081Z,34.07
2018-11-02T17:24:32.733Z,36.77
2018-11-02T17:27:00.370Z,37.50
2018-11-02T17:29:27.961Z,36.70
2018-11-02T17:31:55.576Z,37.53
2018-11-02T17:34:23.216Z,36.40
2018-11-02T17:36:50.984Z,42.10
2018-11-02T17:39:18.611Z,31.77
2018-11-02T17:41:46.223Z,37.47
2018-11-02T17:44:13.888Z,35.30
2018-11-02T17:46:41.530Z,39.73
2018-11-02T17:49:09.170Z,39.13
2018-11-02T17:51:36.797Z,40.70
2018-11-02T17:54:04.516Z,39.90
2018-11-02T17:56:32.385Z,44.17
2018-11-02T17:59:00.087Z,43.13
2018-11-02T18:01:27.749Z,43.27
2018-11-02T18:03:55.386Z,43.33
2018-11-02T18:06:23.245Z,44.30
2018-11-02T18:08:50.842Z,45.33
2018-11-02T18:11:18.573Z,44.53
2018-11-02T18:13:46.260Z,38.70
2018-11-02T18:16:14.172Z,44.57
2018-11-02T18:18:41.859Z,44.77
2018-11-02T18:21:09.494Z,42.93
2018-11-02T18:23:37.147Z,45.57
2018-11-02T18:26:05.172Z,49.70
2018-11-02T18:28:32.900Z,49.80
2018-11-02T18:31:00.537Z,48.60
2018-11-02T18:33:28.299Z,47.60
2018-11-02T18:35:55.974Z,49.73
2018-11-02T18:38:23.743Z,45.53
2018-11-02T18:40:51.475Z,54.10
2018-11-02T18:43:19.784Z,46.75
2018-11-02T18:45:47.606Z,46.37
2018-11-02T18:48:15.352Z,42.30
2018-11-02T18:50:42.973Z,44.80
2018-11-02T18:53:11.155Z,42.53
2018-11-02T18:55:38.898Z,49.07
2018-11-02T18:58:06.682Z,48.53
2018-11-02T19:00:34.319Z,45.40
2018-11-02T19:03:02.012Z,41.03
2018-11-02T19:05:29.723Z,45.67
2018-11-02T19:07:58.328Z,33.77
2018-11-02T19:10:26.052Z,44.80
2018-11-02T19:12:53.730Z,45.23
2018-11-02T19:15:21.446Z,43.33
2018-11-02T19:17:49.400Z,36.57
2018-11-02T19:20:17.180Z,40.50
2018-11-02T19:22:45.437Z,44.80
2018-11-02T19:25:14.167Z,49.60
2018-11-02T19:27:43.613Z,56.53
2018-11-02T19:30:12.224Z,55.93
2018-11-02T19:32:40.028Z,56.23
2018-11-02T19:35:13.602Z,47.97
2018-11-02T19:37:50.733Z,53.03
2018-11-02T19:40:18.422Z,43.63
2018-11-02T19:42:46.427Z,50.90
2018-11-02T19:45:14.136Z,47.70
2018-11-02T19:47:47.489Z,49.97
2018-11-02T19:50:16.270Z,46.87
2018-11-02T19:52:44.189Z,36.00
2018-11-02T19:55:13.271Z,36.57
2018-11-02T19:57:42.179Z,43.67
2018-11-02T20:00:19.388Z,36.30
2018-11-02T20:02:47.077Z,39.60
2018-11-02T20:05:18.038Z,41.33
2018-11-02T20:07:45.994Z,38.13
2018-11-02T20:10:14.607Z,40.70
2018-11-02T20:12:42.702Z,45.20
2018-11-02T20:15:11.469Z,48.87
2018-11-02T20:17:40.026Z,47.13
2018-11-02T20:20:09.321Z,56.97
2018-11-02T20:22:37.583Z,57.03
2018-11-02T20:25:06.317Z,85.27
2018-11-02T20:27:34.904Z,73.00
2018-11-02T20:30:02.725Z,55.50
2018-11-02T20:32:35.518Z,72.30
2018-11-02T20:35:03.692Z,50.27
2018-11-02T20:37:32.054Z,52.60
2018-11-02T20:39:59.870Z,46.20
2018-11-02T20:42:27.637Z,51.10
2018-11-02T20:44:55.282Z,42.57
2018-11-02T20:47:23.152Z,43.60
2018-11-02T20:49:50.987Z,50.20
2018-11-02T20:52:18.749Z,46.70
2018-11-02T20:54:46.519Z,41.85
2018-11-02T20:57:15.016Z,38.33
2018-11-02T20:59:42.778Z,40.38
2018-11-02T21:02:10.498Z,45.23
2018-11-02T21:04:38.253Z,44.97
2018-11-02T21:07:06.024Z,40.47
2018-11-02T21:09:33.944Z,50.33
2018-11-02T21:12:01.567Z,47.23
2018-11-02T21:14:31.000Z,44.33
2018-11-02T21:16:59.192Z,42.50
2018-11-02T21:19:26.996Z,39.37
2018-11-02T21:21:54.775Z,49.37
2018-11-02T21:24:22.454Z,44.93
2018-11-02T21:26:50.429Z,48.87
2018-11-02T21:29:18.113Z,43.27
2018-11-02T21:31:45.822Z,43.83
2018-11-02T21:34:13.586Z,46.80
2018-11-02T21:36:41.273Z,51.30
2018-11-02T21:39:10.342Z,44.83
2018-11-02T21:41:38.849Z,44.13
2018-11-02T21:44:06.705Z,48.00
2018-11-02T21:46:34.506Z,46.33
2018-11-02T21:49:02.209Z,42.80
2018-11-02T21:51:29.903Z,45.60
2018-11-02T21:53:57.624Z,43.30
2018-11-02T21:56:25.345Z,50.37
2018-11-02T21:58:53.009Z,43.50
2018-11-02T22:01:20.685Z,37.73
2018-11-02T22:03:48.359Z,39.50
2018-11-02T22:06:16.029Z,38.57
2018-11-02T22:08:43.695Z,42.50
2018-11-02T22:11:11.350Z,41.10
2018-11-02T22:13:39.048Z,39.10
2018-11-02T22:16:06.706Z,37.17
2018-11-02T22:28:37.139Z,45.13
2018-11-02T22:31:04.929Z,41.33
2018-11-02T22:33:38.305Z,44.95
2018-11-02T22:36:06.006Z,51.80
2018-11-02T22:38:33.654Z,43.07
2018-11-02T22:41:01.347Z,41.50
2018-11-02T22:43:29.942Z,50.70
2018-11-02T22:45:57.566Z,46.70
2018-11-02T22:48:25.834Z,45.37
2018-11-02T22:50:55.163Z,47.62
2018-11-02T22:53:22.950Z,47.63
2018-11-02T22:55:50.497Z,39.00
2018-11-02T22:58:18.136Z,43.73
2018-11-02T23:00:51.258Z,48.27
2018-11-02T23:03:18.913Z,44.20
2018-11-02T23:05:46.619Z,43.60
2018-11-02T23:08:14.141Z,42.93
2018-11-02T23:10:41.684Z,42.60
2018-11-02T23:13:09.247Z,45.07
2018-11-02T23:15:36.838Z,47.83
2018-11-02T23:18:04.484Z,44.43
2018-11-02T23:20:32.080Z,39.43
2018-11-02T23:22:59.628Z,53.97
2018-11-02T23:25:27.201Z,42.30
2018-11-02T23:27:54.725Z,41.47
2018-11-02T23:30:22.309Z,48.83
2018-11-02T23:32:49.886Z,51.20
2018-11-02T23:35:17.486Z,40.73
2018-11-02T23:37:45.145Z,42.23
2018-11-02T23:40:13.013Z,44.23
2018-11-02T23:42:40.728Z,49.47
2018-11-02T23:45:09.288Z,45.10
2018-11-02T23:47:37.009Z,43.50
2018-11-02T23:50:06.383Z,49.50
2018-11-02T23:52:33.955Z,46.23
2018-11-02T23:55:01.533Z,51.93
2018-11-02T23:57:29.127Z,47.87
2018-11-02T23:59:56.713Z,52.63
